sensor_id;sensor_type;location;lat;lon;timestamp;pressure;altitude;pressure_sealevel;temperature
72405;BMP280;60395;52.020;113.548;2022-10-03T00:02:38;94116.63;;;3.60
72405;BMP280;60395;52.020;113.548;2022-10-03T00:06:02;94113.13;;;3.16
72405;BMP280;60395;52.020;113.548;2022-10-03T00:09:20;94119.47;;;2.77
72405;BMP280;60395;52.020;113.548;2022-10-03T00:23:05;94119.34;;;2.08
72405;BMP280;60395;52.020;113.548;2022-10-03T00:26:17;94121.75;;;1.89
72405;BMP280;60395;52.020;113.548;2022-10-03T00:33:17;94132.19;;;1.75
72405;BMP280;60395;52.020;113.548;2022-10-03T00:43:25;94139.53;;;1.65
72405;BMP280;60395;52.020;113.548;2022-10-03T00:50:34;94123.63;;;1.57
72405;BMP280;60395;52.020;113.548;2022-10-03T00:53:55;94130.19;;;1.74
72405;BMP280;60395;52.020;113.548;2022-10-03T01:00:30;94124.28;;;2.18
72405;BMP280;60395;52.020;113.548;2022-10-03T01:03:49;94130.94;;;2.39
72405;BMP280;60395;52.020;113.548;2022-10-03T01:10:42;94138.63;;;2.86
72405;BMP280;60395;52.020;113.548;2022-10-03T01:14:02;94136.19;;;2.90
72405;BMP280;60395;52.020;113.548;2022-10-03T01:20:44;94133.13;;;2.95
72405;BMP280;60395;52.020;113.548;2022-10-03T01:27:37;94141.16;;;3.01
72405;BMP280;60395;52.020;113.548;2022-10-03T01:31:07;94131.88;;;2.96
72405;BMP280;60395;52.020;113.548;2022-10-03T01:34:23;94132.34;;;2.91
72405;BMP280;60395;52.020;113.548;2022-10-03T01:37:35;94135.13;;;2.79
72405;BMP280;60395;52.020;113.548;2022-10-03T01:40:48;94123.69;;;2.69
72405;BMP280;60395;52.020;113.548;2022-10-03T01:44:21;94121.25;;;2.73
72405;BMP280;60395;52.020;113.548;2022-10-03T01:47:42;94117.78;;;2.84
72405;BMP280;60395;52.020;113.548;2022-10-03T01:54:19;94109.47;;;2.87
72405;BMP280;60395;52.020;113.548;2022-10-03T01:57:41;94119.19;;;2.87
72405;BMP280;60395;52.020;113.548;2022-10-03T02:01:13;94120.41;;;2.68
72405;BMP280;60395;52.020;113.548;2022-10-03T02:04:44;94117.63;;;2.80
72405;BMP280;60395;52.020;113.548;2022-10-03T02:11:36;94096.59;;;3.25
72405;BMP280;60395;52.020;113.548;2022-10-03T02:14:59;94114.59;;;3.38
72405;BMP280;60395;52.020;113.548;2022-10-03T02:21:30;94109.34;;;3.19
72405;BMP280;60395;52.020;113.548;2022-10-03T02:25:02;94102.28;;;3.39
72405;BMP280;60395;52.020;113.548;2022-10-03T02:45:37;94083.91;;;4.29
72405;BMP280;60395;52.020;113.548;2022-10-03T02:49:01;94079.41;;;4.32
72405;BMP280;60395;52.020;113.548;2022-10-03T02:56:14;94075.25;;;4.66
72405;BMP280;60395;52.020;113.548;2022-10-03T03:23:47;94063.75;;;4.73
72405;BMP280;60395;52.020;113.548;2022-10-03T03:27:17;94047.66;;;4.79
72405;BMP280;60395;52.020;113.548;2022-10-03T03:30:32;94042.09;;;4.89
72405;BMP280;60395;52.020;113.548;2022-10-03T03:34:02;94057.09;;;5.14
72405;BMP280;60395;52.020;113.548;2022-10-03T03:37:37;94051.31;;;5.41
72405;BMP280;60395;52.020;113.548;2022-10-03T03:47:57;94049.47;;;5.69
72405;BMP280;60395;52.020;113.548;2022-10-03T04:01:08;94046.66;;;5.87
72405;BMP280;60395;52.020;113.548;2022-10-03T04:21:39;94030.44;;;6.76
72405;BMP280;60395;52.020;113.548;2022-10-03T04:28:54;94030.38;;;6.74
72405;BMP280;60395;52.020;113.548;2022-10-03T04:45:55;94017.97;;;6.74
72405;BMP280;60395;52.020;113.548;2022-10-03T04:49:08;94017.31;;;6.74
72405;BMP280;60395;52.020;113.548;2022-10-03T04:59:35;94000.72;;;7.63
72405;BMP280;60395;52.020;113.548;2022-10-03T05:06:44;94002.75;;;7.31
72405;BMP280;60395;52.020;113.548;2022-10-03T05:09:55;93999.28;;;7.20
72405;BMP280;60395;52.020;113.548;2022-10-03T05:20:36;93993.06;;;7.01
72405;BMP280;60395;52.020;113.548;2022-10-03T05:24:11;93999.91;;;7.18
72405;BMP280;60395;52.020;113.548;2022-10-03T05:27:43;93987.63;;;7.25
72405;BMP280;60395;52.020;113.548;2022-10-03T05:34:20;93982.78;;;7.11
72405;BMP280;60395;52.020;113.548;2022-10-03T05:37:51;93984.03;;;7.08
72405;BMP280;60395;52.020;113.548;2022-10-03T05:44:38;93982.59;;;6.67
72405;BMP280;60395;52.020;113.548;2022-10-03T05:55:12;93989.13;;;6.66
72405;BMP280;60395;52.020;113.548;2022-10-03T06:12:09;93981.38;;;6.72
72405;BMP280;60395;52.020;113.548;2022-10-03T06:29:01;93975.56;;;6.44
72405;BMP280;60395;52.020;113.548;2022-10-03T07:00:52;93984.38;;;5.71
72405;BMP280;60395;52.020;113.548;2022-10-03T07:04:19;93979.56;;;5.62
72405;BMP280;60395;52.020;113.548;2022-10-03T07:14:41;93974.84;;;5.05
72405;BMP280;60395;52.020;113.548;2022-10-03T07:18:40;93976.00;;;5.00
72405;BMP280;60395;52.020;113.548;2022-10-03T07:25:30;93973.81;;;5.40
72405;BMP280;60395;52.020;113.548;2022-10-03T07:28:55;93989.19;;;5.57
72405;BMP280;60395;52.020;113.548;2022-10-03T07:32:35;93989.25;;;5.59
72405;BMP280;60395;52.020;113.548;2022-10-03T07:44:02;93994.69;;;5.67
72405;BMP280;60395;52.020;113.548;2022-10-03T07:50:56;93994.41;;;5.57
72405;BMP280;60395;52.020;113.548;2022-10-03T07:54:29;93994.22;;;5.49
72405;BMP280;60395;52.020;113.548;2022-10-03T08:17:58;94002.41;;;5.14
72405;BMP280;60395;52.020;113.548;2022-10-03T08:21:23;93992.97;;;5.26
72405;BMP280;60395;52.020;113.548;2022-10-03T08:32:05;94000.41;;;5.36
72405;BMP280;60395;52.020;113.548;2022-10-03T08:35:33;94003.31;;;5.22
72405;BMP280;60395;52.020;113.548;2022-10-03T08:39:11;94003.03;;;5.12
72405;BMP280;60395;52.020;113.548;2022-10-03T08:46:16;94001.19;;;4.69
72405;BMP280;60395;52.020;113.548;2022-10-03T09:06:04;94010.88;;;5.14
72405;BMP280;60395;52.020;113.548;2022-10-03T09:54:16;94013.31;;;3.38
72405;BMP280;60395;52.020;113.548;2022-10-03T09:57:55;94021.19;;;3.23
72405;BMP280;60395;52.020;113.548;2022-10-03T10:15:03;94029.47;;;2.46
72405;BMP280;60395;52.020;113.548;2022-10-03T10:28:55;94026.09;;;2.26
72405;BMP280;60395;52.020;113.548;2022-10-03T10:39:27;94034.66;;;2.13
72405;BMP280;60395;52.020;113.548;2022-10-03T11:04:31;94056.91;;;1.71
72405;BMP280;60395;52.020;113.548;2022-10-03T11:08:17;94068.34;;;1.66
72405;BMP280;60395;52.020;113.548;2022-10-03T11:42:47;94079.94;;;1.04
72405;BMP280;60395;52.020;113.548;2022-10-03T11:46:15;94076.06;;;1.05
72405;BMP280;60395;52.020;113.548;2022-10-03T12:06:09;94080.19;;;1.10
72405;BMP280;60395;52.020;113.548;2022-10-03T12:12:54;94083.78;;;1.03
72405;BMP280;60395;52.020;113.548;2022-10-03T12:15:59;94082.31;;;1.00
72405;BMP280;60395;52.020;113.548;2022-10-03T12:19:15;94074.38;;;0.96
72405;BMP280;60395;52.020;113.548;2022-10-03T12:22:41;94077.38;;;0.91
72405;BMP280;60395;52.020;113.548;2022-10-03T12:25:50;94077.19;;;0.87
72405;BMP280;60395;52.020;113.548;2022-10-03T12:28:56;94088.09;;;0.85
72405;BMP280;60395;52.020;113.548;2022-10-03T12:32:25;94081.59;;;0.84
72405;BMP280;60395;52.020;113.548;2022-10-03T12:42:09;94075.22;;;0.71
72405;BMP280;60395;52.020;113.548;2022-10-03T12:45:40;94080.84;;;0.68
72405;BMP280;60395;52.020;113.548;2022-10-03T12:49:04;94084.50;;;0.63
72405;BMP280;60395;52.020;113.548;2022-10-03T12:52:19;94086.22;;;0.58
72405;BMP280;60395;52.020;113.548;2022-10-03T12:55:30;94085.44;;;0.56
72405;BMP280;60395;52.020;113.548;2022-10-03T12:58:46;94083.94;;;0.51
72405;BMP280;60395;52.020;113.548;2022-10-03T13:08:37;94088.34;;;0.48
72405;BMP280;60395;52.020;113.548;2022-10-03T13:11:56;94090.75;;;0.44
72405;BMP280;60395;52.020;113.548;2022-10-03T13:18:55;94094.66;;;0.45
72405;BMP280;60395;52.020;113.548;2022-10-03T13:22:30;94098.59;;;0.46
72405;BMP280;60395;52.020;113.548;2022-10-03T13:25:50;94095.91;;;0.44
72405;BMP280;60395;52.020;113.548;2022-10-03T13:32:38;94095.81;;;0.42
72405;BMP280;60395;52.020;113.548;2022-10-03T13:35:51;94100.41;;;0.43
72405;BMP280;60395;52.020;113.548;2022-10-03T13:39:25;94104.25;;;0.42
72405;BMP280;60395;52.020;113.548;2022-10-03T13:42:41;94106.25;;;0.44
72405;BMP280;60395;52.020;113.548;2022-10-03T13:45:49;94099.06;;;0.42
72405;BMP280;60395;52.020;113.548;2022-10-03T13:48:59;94100.50;;;0.46
72405;BMP280;60395;52.020;113.548;2022-10-03T13:55:49;94100.97;;;0.42
72405;BMP280;60395;52.020;113.548;2022-10-03T13:59:25;94096.47;;;0.42
72405;BMP280;60395;52.020;113.548;2022-10-03T14:02:55;94100.19;;;0.39
72405;BMP280;60395;52.020;113.548;2022-10-03T14:17:10;94106.25;;;0.44
72405;BMP280;60395;52.020;113.548;2022-10-03T14:20:28;94113.34;;;0.43
72405;BMP280;60395;52.020;113.548;2022-10-03T14:34:35;94113.03;;;0.37
72405;BMP280;60395;52.020;113.548;2022-10-03T14:40:48;94118.22;;;0.24
72405;BMP280;60395;52.020;113.548;2022-10-03T14:44:04;94113.53;;;0.20
72405;BMP280;60395;52.020;113.548;2022-10-03T14:47:17;94113.44;;;0.18
72405;BMP280;60395;52.020;113.548;2022-10-03T14:50:24;94112.00;;;0.15
72405;BMP280;60395;52.020;113.548;2022-10-03T14:53:28;94109.31;;;0.13
72405;BMP280;60395;52.020;113.548;2022-10-03T14:56:39;94111.13;;;0.11
72405;BMP280;60395;52.020;113.548;2022-10-03T14:59:51;94106.53;;;0.09
72405;BMP280;60395;52.020;113.548;2022-10-03T15:02:55;94112.16;;;0.06
72405;BMP280;60395;52.020;113.548;2022-10-03T15:09:52;94106.78;;;0.02
72405;BMP280;60395;52.020;113.548;2022-10-03T15:13:03;94110.63;;;0.00
72405;BMP280;60395;52.020;113.548;2022-10-03T15:16:09;94107.38;;;0.00
72405;BMP280;60395;52.020;113.548;2022-10-03T15:22:36;94114.47;;;-0.01
72405;BMP280;60395;52.020;113.548;2022-10-03T15:25:42;94109.28;;;-0.01
72405;BMP280;60395;52.020;113.548;2022-10-03T15:28:56;94111.28;;;0.01
72405;BMP280;60395;52.020;113.548;2022-10-03T15:32:02;94108.81;;;0.03
72405;BMP280;60395;52.020;113.548;2022-10-03T15:35:25;94099.81;;;0.04
72405;BMP280;60395;52.020;113.548;2022-10-03T15:38:36;94103.16;;;0.07
72405;BMP280;60395;52.020;113.548;2022-10-03T15:41:55;94113.03;;;0.10
72405;BMP280;60395;52.020;113.548;2022-10-03T15:45:05;94117.16;;;0.15
72405;BMP280;60395;52.020;113.548;2022-10-03T15:48:12;94113.63;;;0.22
72405;BMP280;60395;52.020;113.548;2022-10-03T15:51:18;94113.91;;;0.28
72405;BMP280;60395;52.020;113.548;2022-10-03T15:54:28;94103.75;;;0.32
72405;BMP280;60395;52.020;113.548;2022-10-03T15:57:38;94107.38;;;0.41
72405;BMP280;60395;52.020;113.548;2022-10-03T16:01:10;94102.41;;;0.45
72405;BMP280;60395;52.020;113.548;2022-10-03T16:04:30;94098.28;;;0.40
72405;BMP280;60395;52.020;113.548;2022-10-03T16:11:28;94111.03;;;0.50
72405;BMP280;60395;52.020;113.548;2022-10-03T16:14:42;94096.84;;;0.51
72405;BMP280;60395;52.020;113.548;2022-10-03T16:20:59;94098.88;;;0.52
72405;BMP280;60395;52.020;113.548;2022-10-03T16:24:05;94086.50;;;0.51
72405;BMP280;60395;52.020;113.548;2022-10-03T16:27:44;94096.47;;;0.56
72405;BMP280;60395;52.020;113.548;2022-10-03T16:30:50;94100.28;;;0.55
72405;BMP280;60395;52.020;113.548;2022-10-03T16:34:02;94097.06;;;0.55
72405;BMP280;60395;52.020;113.548;2022-10-03T16:37:20;94084.69;;;0.53
72405;BMP280;60395;52.020;113.548;2022-10-03T16:40:26;94090.06;;;0.57
72405;BMP280;60395;52.020;113.548;2022-10-03T16:43:31;94092.16;;;0.61
72405;BMP280;60395;52.020;113.548;2022-10-03T16:46:37;94084.59;;;0.65
72405;BMP280;60395;52.020;113.548;2022-10-03T16:53:07;94080.09;;;0.65
72405;BMP280;60395;52.020;113.548;2022-10-03T16:56:18;94084.00;;;0.66
72405;BMP280;60395;52.020;113.548;2022-10-03T16:59:24;94079.31;;;0.63
72405;BMP280;60395;52.020;113.548;2022-10-03T17:02:29;94089.56;;;0.61
72405;BMP280;60395;52.020;113.548;2022-10-03T17:05:42;94078.66;;;0.62
72405;BMP280;60395;52.020;113.548;2022-10-03T17:08:49;94075.31;;;0.60
72405;BMP280;60395;52.020;113.548;2022-10-03T17:11:56;94082.31;;;0.57
72405;BMP280;60395;52.020;113.548;2022-10-03T17:15:06;94086.06;;;0.54
72405;BMP280;60395;52.020;113.548;2022-10-03T17:18:25;94085.84;;;0.50
72405;BMP280;60395;52.020;113.548;2022-10-03T17:21:30;94082.22;;;0.41
72405;BMP280;60395;52.020;113.548;2022-10-03T17:24:42;94089.19;;;0.39
72405;BMP280;60395;52.020;113.548;2022-10-03T17:27:48;94091.78;;;0.39
72405;BMP280;60395;52.020;113.548;2022-10-03T17:30:53;94087.66;;;0.34
72405;BMP280;60395;52.020;113.548;2022-10-03T17:34:27;94086.94;;;0.31
72405;BMP280;60395;52.020;113.548;2022-10-03T17:42:05;94077.84;;;0.30
72405;BMP280;60395;52.020;113.548;2022-10-03T17:45:43;94082.34;;;0.30
72405;BMP280;60395;52.020;113.548;2022-10-03T17:49:16;94076.41;;;0.27
72405;BMP280;60395;52.020;113.548;2022-10-03T17:52:21;94078.13;;;0.23
72405;BMP280;60395;52.020;113.548;2022-10-03T17:55:52;94074.66;;;0.18
72405;BMP280;60395;52.020;113.548;2022-10-03T17:58:57;94069.50;;;0.18
72405;BMP280;60395;52.020;113.548;2022-10-03T18:02:24;94074.59;;;0.16
72405;BMP280;60395;52.020;113.548;2022-10-03T18:05:38;94065.38;;;0.13
72405;BMP280;60395;52.020;113.548;2022-10-03T18:08:42;94068.47;;;0.10
72405;BMP280;60395;52.020;113.548;2022-10-03T18:11:47;94058.03;;;0.08
72405;BMP280;60395;52.020;113.548;2022-10-03T18:15:23;94058.03;;;0.08
72405;BMP280;60395;52.020;113.548;2022-10-03T18:22:11;94070.06;;;0.03
72405;BMP280;60395;52.020;113.548;2022-10-03T18:25:45;94061.66;;;0.03
72405;BMP280;60395;52.020;113.548;2022-10-03T18:29:31;94057.72;;;0.02
72405;BMP280;60395;52.020;113.548;2022-10-03T18:32:37;94054.38;;;-0.01
72405;BMP280;60395;52.020;113.548;2022-10-03T18:35:44;94064.50;;;-0.05
72405;BMP280;60395;52.020;113.548;2022-10-03T18:38:49;94054.53;;;-0.11
72405;BMP280;60395;52.020;113.548;2022-10-03T18:41:59;94054.53;;;-0.11
72405;BMP280;60395;52.020;113.548;2022-10-03T18:45:04;94039.53;;;-0.14
72405;BMP280;60395;52.020;113.548;2022-10-03T18:48:17;94051.22;;;-0.13
72405;BMP280;60395;52.020;113.548;2022-10-03T18:51:35;94048.91;;;-0.21
72405;BMP280;60395;52.020;113.548;2022-10-03T18:55:17;94048.03;;;-0.25
72405;BMP280;60395;52.020;113.548;2022-10-03T18:58:24;94039.31;;;-0.32
72405;BMP280;60395;52.020;113.548;2022-10-03T19:01:34;94039.88;;;-0.33
72405;BMP280;60395;52.020;113.548;2022-10-03T19:08:09;94035.84;;;-0.36
72405;BMP280;60395;52.020;113.548;2022-10-03T19:11:33;94018.81;;;-0.42
72405;BMP280;60395;52.020;113.548;2022-10-03T19:21:41;94022.69;;;-0.54
72405;BMP280;60395;52.020;113.548;2022-10-03T19:24:47;94014.75;;;-0.58
72405;BMP280;60395;52.020;113.548;2022-10-03T19:28:05;94011.31;;;-0.63
72405;BMP280;60395;52.020;113.548;2022-10-03T19:34:26;94000.69;;;-0.69
72405;BMP280;60395;52.020;113.548;2022-10-03T19:37:46;94003.16;;;-0.71
72405;BMP280;60395;52.020;113.548;2022-10-03T19:44:12;93993.13;;;-0.78
72405;BMP280;60395;52.020;113.548;2022-10-03T19:50:33;94002.56;;;-0.83
72405;BMP280;60395;52.020;113.548;2022-10-03T19:53:40;93994.03;;;-0.86
72405;BMP280;60395;52.020;113.548;2022-10-03T19:56:44;93991.34;;;-0.88
72405;BMP280;60395;52.020;113.548;2022-10-03T19:59:51;93991.16;;;-0.92
72405;BMP280;60395;52.020;113.548;2022-10-03T20:03:03;93985.25;;;-0.94
72405;BMP280;60395;52.020;113.548;2022-10-03T20:09:22;93990.66;;;-1.02
72405;BMP280;60395;52.020;113.548;2022-10-03T20:12:29;93991.00;;;-1.07
72405;BMP280;60395;52.020;113.548;2022-10-03T20:15:48;93983.84;;;-1.09
72405;BMP280;60395;52.020;113.548;2022-10-03T20:18:56;93990.22;;;-1.10
72405;BMP280;60395;52.020;113.548;2022-10-03T20:22:05;93984.19;;;-1.14
72405;BMP280;60395;52.020;113.548;2022-10-03T20:25:26;93994.63;;;-1.12
72405;BMP280;60395;52.020;113.548;2022-10-03T20:32:02;93980.00;;;-1.21
72405;BMP280;60395;52.020;113.548;2022-10-03T20:35:05;93980.91;;;-1.29
72405;BMP280;60395;52.020;113.548;2022-10-03T20:45:05;93986.94;;;-1.36
72405;BMP280;60395;52.020;113.548;2022-10-03T20:48:21;93983.50;;;-1.40
72405;BMP280;60395;52.020;113.548;2022-10-03T20:58:09;93985.44;;;-1.52
72405;BMP280;60395;52.020;113.548;2022-10-03T21:01:24;93983.41;;;-1.54
72405;BMP280;60395;52.020;113.548;2022-10-03T21:04:37;93988.56;;;-1.54
72405;BMP280;60395;52.020;113.548;2022-10-03T21:07:51;93988.13;;;-1.50
72405;BMP280;60395;52.020;113.548;2022-10-03T21:10:58;93984.31;;;-1.49
72405;BMP280;60395;52.020;113.548;2022-10-03T21:14:19;93986.88;;;-1.49
72405;BMP280;60395;52.020;113.548;2022-10-03T21:17:25;93981.16;;;-1.48
72405;BMP280;60395;52.020;113.548;2022-10-03T21:20:37;93976.66;;;-1.47
72405;BMP280;60395;52.020;113.548;2022-10-03T21:27:26;93988.22;;;-1.48
72405;BMP280;60395;52.020;113.548;2022-10-03T21:31:27;93986.88;;;-1.49
72405;BMP280;60395;52.020;113.548;2022-10-03T21:34:19;93984.41;;;-1.47
72405;BMP280;60395;52.020;113.548;2022-10-03T21:43:59;93991.91;;;-1.40
72405;BMP280;60395;52.020;113.548;2022-10-03T21:47:27;93996.59;;;-1.36
72405;BMP280;60395;52.020;113.548;2022-10-03T21:50:40;93996.25;;;-1.31
72405;BMP280;60395;52.020;113.548;2022-10-03T21:54:03;93992.09;;;-1.24
72405;BMP280;60395;52.020;113.548;2022-10-03T22:01:14;93997.09;;;-1.14
72405;BMP280;60395;52.020;113.548;2022-10-03T22:04:24;93997.41;;;-1.08
72405;BMP280;60395;52.020;113.548;2022-10-03T22:07:37;93989.72;;;-1.20
72405;BMP280;60395;52.020;113.548;2022-10-03T22:10:51;93993.00;;;-1.31
72405;BMP280;60395;52.020;113.548;2022-10-03T22:20:36;94001.59;;;-1.75
72405;BMP280;60395;52.020;113.548;2022-10-03T22:23:50;93995.56;;;-1.80
72405;BMP280;60395;52.020;113.548;2022-10-03T22:30:29;93991.19;;;-1.66
72405;BMP280;60395;52.020;113.548;2022-10-03T22:36:53;93994.13;;;-1.34
72405;BMP280;60395;52.020;113.548;2022-10-03T22:40:00;93995.34;;;-1.23
72405;BMP280;60395;52.020;113.548;2022-10-03T22:43:04;94000.25;;;-1.16
72405;BMP280;60395;52.020;113.548;2022-10-03T22:46:12;94005.13;;;-1.08
72405;BMP280;60395;52.020;113.548;2022-10-03T22:49:25;94007.00;;;-0.97
72405;BMP280;60395;52.020;113.548;2022-10-03T22:52:49;94003.69;;;-0.86
72405;BMP280;60395;52.020;113.548;2022-10-03T22:55:56;94002.78;;;-0.79
72405;BMP280;60395;52.020;113.548;2022-10-03T22:59:07;94000.94;;;-0.76
72405;BMP280;60395;52.020;113.548;2022-10-03T23:02:11;93999.03;;;-0.76
72405;BMP280;60395;52.020;113.548;2022-10-03T23:05:52;93998.97;;;-0.64
72405;BMP280;60395;52.020;113.548;2022-10-03T23:09:22;93994.81;;;-0.44
72405;BMP280;60395;52.020;113.548;2022-10-03T23:12:38;94000.47;;;-0.34
72405;BMP280;60395;52.020;113.548;2022-10-03T23:15:45;93997.94;;;-0.20
72405;BMP280;60395;52.020;113.548;2022-10-03T23:19:19;93990.19;;;-0.07
72405;BMP280;60395;52.020;113.548;2022-10-03T23:22:25;93994.69;;;0.07
72405;BMP280;60395;52.020;113.548;2022-10-03T23:26:00;93994.69;;;0.20
72405;BMP280;60395;52.020;113.548;2022-10-03T23:28:59;93993.31;;;0.33
72405;BMP280;60395;52.020;113.548;2022-10-03T23:32:06;93993.94;;;0.47
72405;BMP280;60395;52.020;113.548;2022-10-03T23:41:43;93997.03;;;0.73
72405;BMP280;60395;52.020;113.548;2022-10-03T23:44:53;93988.88;;;0.78
72405;BMP280;60395;52.020;113.548;2022-10-03T23:48:11;93995.66;;;0.85
72405;BMP280;60395;52.020;113.548;2022-10-03T23:51:19;93994.44;;;0.87
72405;BMP280;60395;52.020;113.548;2022-10-03T23:54:24;93997.69;;;0.87
72405;BMP280;60395;52.020;113.548;2022-10-03T23:57:34;94000.44;;;0.91
